createdAt,value
2019-03-29T00:00:06.016Z,37.50
2019-03-29T00:01:11.041Z,37.50
2019-03-29T00:02:14.358Z,37.60
2019-03-29T00:03:17.677Z,37.80
2019-03-29T00:04:20.871Z,37.90
2019-03-29T00:05:24.424Z,37.90
2019-03-29T00:06:27.996Z,38.00
2019-03-29T00:07:39.432Z,38.00
2019-03-29T00:08:37.796Z,38.00
2019-03-29T00:09:41.035Z,38.00
2019-03-29T00:10:45.316Z,38.00
2019-03-29T00:11:48.545Z,38.00
2019-03-29T00:12:51.753Z,37.60
2019-03-29T00:13:54.962Z,37.50
2019-03-29T00:14:58.596Z,37.90
2019-03-29T00:16:01.868Z,38.60
2019-03-29T00:17:05.169Z,38.70
2019-03-29T00:18:09.343Z,38.30
2019-03-29T00:19:13.224Z,38.40
2019-03-29T00:20:16.446Z,38.40
2019-03-29T00:21:19.691Z,38.50
2019-03-29T00:22:22.913Z,38.50
2019-03-29T00:23:26.981Z,38.30
2019-03-29T00:24:30.237Z,38.50
2019-03-29T00:25:33.561Z,38.50
2019-03-29T00:26:36.888Z,38.60
2019-03-29T00:27:40.649Z,38.70
2019-03-29T00:28:44.117Z,38.80
2019-03-29T00:29:47.613Z,38.80
2019-03-29T00:30:50.933Z,38.90
2019-03-29T00:31:54.937Z,38.80
2019-03-29T00:32:59.091Z,38.80
2019-03-29T00:34:02.277Z,38.80
2019-03-29T00:35:07.892Z,38.90
2019-03-29T00:36:11.706Z,39.10
2019-03-29T00:37:14.897Z,39.30
2019-03-29T00:38:18.195Z,39.20
2019-03-29T00:39:24.057Z,39.10
2019-03-29T00:40:27.255Z,39.10
2019-03-29T00:41:30.451Z,39.10
2019-03-29T00:42:33.749Z,39.10
2019-03-29T00:43:36.998Z,39.50
2019-03-29T00:44:40.336Z,39.70
2019-03-29T00:45:43.525Z,39.60
2019-03-29T00:46:46.773Z,39.50
2019-03-29T00:47:50.010Z,39.30
2019-03-29T00:48:53.215Z,39.20
2019-03-29T00:49:56.397Z,39.20
2019-03-29T00:50:59.642Z,39.20
2019-03-29T00:52:02.833Z,39.00
2019-03-29T00:53:06.185Z,39.00
2019-03-29T00:54:09.370Z,38.80
2019-03-29T00:55:12.776Z,38.70
2019-03-29T00:56:16.042Z,38.40
2019-03-29T00:57:19.241Z,38.20
2019-03-29T00:58:22.992Z,38.20
2019-03-29T00:59:26.301Z,38.50
2019-03-29T01:00:31.445Z,38.80
2019-03-29T01:01:34.642Z,38.70
2019-03-29T01:02:37.844Z,38.70
2019-03-29T01:03:41.185Z,38.60
2019-03-29T01:04:45.632Z,38.40
2019-03-29T01:05:48.829Z,38.30
2019-03-29T01:06:52.058Z,38.20
2019-03-29T01:08:07.082Z,38.00
2019-03-29T01:09:00.336Z,37.90
2019-03-29T01:10:03.890Z,38.00
2019-03-29T01:11:07.120Z,38.60
2019-03-29T01:12:10.461Z,38.80
2019-03-29T01:13:13.689Z,38.90
2019-03-29T01:14:17.135Z,39.20
2019-03-29T01:15:20.410Z,39.30
2019-03-29T01:16:23.608Z,39.20
2019-03-29T01:17:26.804Z,39.40
2019-03-29T01:18:29.990Z,39.50
2019-03-29T01:19:33.201Z,39.60
2019-03-29T01:20:36.376Z,39.50
2019-03-29T01:21:39.974Z,39.80
2019-03-29T01:22:43.227Z,40.00
2019-03-29T01:23:46.420Z,40.20
2019-03-29T01:24:49.665Z,40.20
2019-03-29T01:25:52.906Z,40.20
2019-03-29T01:26:56.461Z,40.20
2019-03-29T01:27:59.658Z,40.00
2019-03-29T01:29:03.129Z,40.00
2019-03-29T01:30:07.336Z,40.40
2019-03-29T01:31:10.623Z,40.00
2019-03-29T01:32:13.806Z,39.80
2019-03-29T01:33:17.029Z,39.80
2019-03-29T01:34:20.213Z,40.00
2019-03-29T01:35:23.628Z,39.90
2019-03-29T01:36:27.881Z,39.90
2019-03-29T01:37:31.356Z,40.00
2019-03-29T01:38:34.572Z,39.90
2019-03-29T01:39:37.746Z,39.70
2019-03-29T01:40:41.045Z,39.60
2019-03-29T01:41:44.226Z,39.30
2019-03-29T01:42:47.407Z,39.20
2019-03-29T01:43:50.674Z,39.20
2019-03-29T01:44:53.896Z,39.20
2019-03-29T01:45:57.126Z,39.20
2019-03-29T01:47:00.359Z,39.10
2019-03-29T01:48:03.564Z,39.10
2019-03-29T01:49:06.783Z,39.50
2019-03-29T01:50:10.096Z,39.60
2019-03-29T01:51:13.444Z,39.90
2019-03-29T01:52:16.613Z,40.10
2019-03-29T01:53:19.918Z,40.20
2019-03-29T01:54:23.104Z,40.40
2019-03-29T01:55:26.284Z,40.50
2019-03-29T01:56:29.553Z,40.60
2019-03-29T01:57:32.917Z,40.70
2019-03-29T01:58:36.130Z,40.90
2019-03-29T01:59:39.340Z,41.00
2019-03-29T02:00:42.566Z,41.00
2019-03-29T02:01:45.869Z,41.00
2019-03-29T02:02:49.077Z,41.10
2019-03-29T02:03:52.329Z,41.30
2019-03-29T02:04:55.554Z,41.50
2019-03-29T02:05:58.769Z,41.60
2019-03-29T02:07:02.021Z,41.70
2019-03-29T02:08:05.368Z,41.80
2019-03-29T02:09:08.588Z,41.80
2019-03-29T02:10:11.885Z,41.90
2019-03-29T02:11:15.174Z,42.00
2019-03-29T02:12:18.312Z,42.00
2019-03-29T02:13:21.646Z,42.20
2019-03-29T02:14:24.852Z,42.40
2019-03-29T02:15:28.053Z,42.50
2019-03-29T02:16:31.400Z,42.60
2019-03-29T02:17:34.701Z,42.60
2019-03-29T02:18:37.922Z,42.70
2019-03-29T02:19:41.114Z,43.20
2019-03-29T02:20:44.329Z,42.70
2019-03-29T02:21:47.572Z,42.90
2019-03-29T02:22:50.833Z,43.20
2019-03-29T02:23:54.077Z,43.20
2019-03-29T02:24:57.313Z,43.20
2019-03-29T02:26:00.652Z,43.10
2019-03-29T02:27:03.944Z,43.20
2019-03-29T02:28:07.217Z,43.50
2019-03-29T02:29:11.034Z,43.50
2019-03-29T02:30:14.571Z,43.40
2019-03-29T02:31:17.785Z,43.30
2019-03-29T02:32:20.995Z,43.20
2019-03-29T02:33:24.262Z,43.20
2019-03-29T02:34:27.485Z,43.10
2019-03-29T02:35:30.735Z,43.10
2019-03-29T02:36:34.663Z,43.20
2019-03-29T02:37:39.205Z,43.30
2019-03-29T02:38:55.015Z,43.00
2019-03-29T02:39:47.437Z,42.90
2019-03-29T02:40:50.985Z,42.80
2019-03-29T02:41:54.581Z,42.80
2019-03-29T02:42:57.801Z,42.60
2019-03-29T02:44:01.062Z,42.60
2019-03-29T02:45:04.716Z,42.50
2019-03-29T02:46:07.958Z,42.60
2019-03-29T02:47:11.150Z,42.70
2019-03-29T02:48:14.353Z,42.90
2019-03-29T02:49:17.602Z,42.90
2019-03-29T02:50:20.810Z,42.80
2019-03-29T02:51:24.005Z,42.90
2019-03-29T02:52:27.199Z,42.90
2019-03-29T02:53:30.406Z,43.10
2019-03-29T02:54:33.662Z,43.10
2019-03-29T02:55:36.882Z,43.30
2019-03-29T02:56:40.119Z,43.50
2019-03-29T02:57:43.373Z,43.60
2019-03-29T02:58:46.559Z,43.60
2019-03-29T02:59:49.827Z,43.70
2019-03-29T03:00:53.018Z,43.60
2019-03-29T03:01:56.214Z,43.50
2019-03-29T03:02:59.538Z,43.40
2019-03-29T03:04:02.735Z,43.30
2019-03-29T03:05:06.188Z,43.20
2019-03-29T03:06:09.654Z,43.20
2019-03-29T03:07:12.839Z,43.10
2019-03-29T03:08:16.047Z,43.20
2019-03-29T03:09:19.241Z,43.20
2019-03-29T03:10:22.504Z,43.20
2019-03-29T03:11:25.698Z,43.30
2019-03-29T03:12:28.933Z,43.30
2019-03-29T03:13:32.176Z,43.40
2019-03-29T03:14:35.382Z,43.70
2019-03-29T03:15:38.598Z,43.90
2019-03-29T03:16:41.814Z,43.90
2019-03-29T03:17:45.121Z,43.90
2019-03-29T03:18:48.303Z,43.70
2019-03-29T03:19:51.499Z,43.60
2019-03-29T03:20:54.735Z,43.60
2019-03-29T03:21:57.919Z,43.50
2019-03-29T03:23:01.131Z,43.40
2019-03-29T03:24:04.557Z,43.30
2019-03-29T03:25:08.333Z,43.40
2019-03-29T03:26:11.632Z,43.40
2019-03-29T03:27:14.858Z,43.20
2019-03-29T03:28:18.073Z,43.10
2019-03-29T03:29:21.317Z,43.20
2019-03-29T03:30:24.639Z,43.30
2019-03-29T03:31:27.866Z,43.30
2019-03-29T03:32:31.060Z,43.30
2019-03-29T03:33:34.262Z,43.20
2019-03-29T03:34:37.651Z,43.20
2019-03-29T03:35:40.800Z,43.30
2019-03-29T03:36:44.031Z,43.50
2019-03-29T03:37:47.228Z,43.60
2019-03-29T03:38:50.481Z,43.60
2019-03-29T03:39:53.653Z,43.80
2019-03-29T03:40:56.926Z,44.40
2019-03-29T03:42:00.157Z,43.90
2019-03-29T03:43:03.368Z,44.10
2019-03-29T03:44:06.586Z,44.30
2019-03-29T03:45:10.217Z,44.30
2019-03-29T03:46:13.436Z,44.40
2019-03-29T03:47:16.674Z,44.50
2019-03-29T03:48:19.974Z,44.40
2019-03-29T03:49:23.174Z,44.50
2019-03-29T03:50:35.110Z,44.50
2019-03-29T03:51:38.424Z,44.50
2019-03-29T03:52:41.918Z,44.50
2019-03-29T03:53:45.597Z,44.40
2019-03-29T03:54:48.996Z,44.30
2019-03-29T03:55:53.190Z,44.30
2019-03-29T03:56:57.105Z,44.30
2019-03-29T03:58:01.785Z,44.40
2019-03-29T03:59:04.982Z,44.40
2019-03-29T04:00:08.709Z,44.60
2019-03-29T04:01:11.896Z,44.60
2019-03-29T04:02:15.208Z,44.60
2019-03-29T04:03:18.486Z,44.60
2019-03-29T04:04:21.693Z,44.70
2019-03-29T04:05:24.926Z,44.70
2019-03-29T04:06:28.145Z,44.70
2019-03-29T04:07:31.383Z,44.70
2019-03-29T04:08:34.648Z,44.70
2019-03-29T04:09:49.609Z,44.70
2019-03-29T04:10:43.140Z,44.90
2019-03-29T04:11:46.344Z,45.00
2019-03-29T04:12:49.540Z,45.10
2019-03-29T04:13:52.894Z,45.20
2019-03-29T04:14:56.219Z,45.10
2019-03-29T04:15:59.485Z,45.00
2019-03-29T04:17:02.710Z,44.80
2019-03-29T04:18:05.896Z,44.60
2019-03-29T04:19:09.161Z,44.70
2019-03-29T04:20:12.356Z,44.70
2019-03-29T04:21:15.591Z,44.80
2019-03-29T04:22:18.811Z,44.90
2019-03-29T04:23:22.029Z,45.10
2019-03-29T04:24:25.307Z,45.10
2019-03-29T04:25:28.618Z,45.30
2019-03-29T04:26:31.846Z,45.50
2019-03-29T04:27:35.025Z,45.50
2019-03-29T04:28:38.354Z,45.60
2019-03-29T04:29:41.619Z,45.40
2019-03-29T04:30:47.790Z,45.40
2019-03-29T04:31:50.993Z,45.30
2019-03-29T04:32:54.254Z,45.20
2019-03-29T04:33:57.486Z,45.10
2019-03-29T04:35:00.719Z,45.00
2019-03-29T04:36:04.001Z,44.90
2019-03-29T04:37:07.194Z,45.00
2019-03-29T04:38:10.396Z,45.10
2019-03-29T04:39:13.710Z,45.30
2019-03-29T04:40:16.952Z,45.60
2019-03-29T04:41:20.205Z,45.90
2019-03-29T04:42:23.422Z,46.20
2019-03-29T04:43:26.618Z,46.70
2019-03-29T04:44:29.789Z,47.10
2019-03-29T04:45:33.073Z,47.40
2019-03-29T04:46:36.310Z,47.60
2019-03-29T04:47:39.504Z,47.60
2019-03-29T04:48:42.688Z,47.50
2019-03-29T04:49:45.940Z,47.50
2019-03-29T04:50:49.174Z,47.50
2019-03-29T04:51:52.406Z,47.40
2019-03-29T04:52:55.645Z,47.40
2019-03-29T04:53:59.004Z,47.40
2019-03-29T04:55:02.288Z,47.30
2019-03-29T04:56:05.526Z,47.30
2019-03-29T04:57:08.717Z,47.20
2019-03-29T04:58:11.912Z,47.10
2019-03-29T04:59:15.111Z,47.50
2019-03-29T05:00:19.008Z,46.80
2019-03-29T05:01:22.303Z,46.60
2019-03-29T05:02:25.549Z,46.60
2019-03-29T05:03:28.756Z,46.70
2019-03-29T05:04:31.981Z,46.70
2019-03-29T05:05:35.165Z,46.80
2019-03-29T05:06:38.371Z,47.00
2019-03-29T05:07:41.570Z,47.10
2019-03-29T05:08:44.799Z,47.10
2019-03-29T05:09:48.013Z,47.00
2019-03-29T05:10:51.206Z,47.00
2019-03-29T05:11:54.497Z,47.00
2019-03-29T05:12:59.592Z,47.60
2019-03-29T05:14:02.698Z,47.00
2019-03-29T05:15:06.520Z,47.00
2019-03-29T05:16:09.781Z,47.00
2019-03-29T05:17:13.014Z,47.00
2019-03-29T05:18:16.205Z,47.00
2019-03-29T05:19:19.409Z,46.90
2019-03-29T05:20:22.609Z,46.90
2019-03-29T05:21:25.855Z,46.90
2019-03-29T05:22:29.087Z,46.70
2019-03-29T05:23:32.289Z,46.70
2019-03-29T05:24:35.480Z,46.50
2019-03-29T05:25:38.689Z,46.40
2019-03-29T05:26:41.885Z,46.20
2019-03-29T05:27:45.149Z,46.10
2019-03-29T05:28:48.377Z,46.00
2019-03-29T05:29:51.582Z,45.80
2019-03-29T05:30:54.830Z,45.70
2019-03-29T05:31:58.031Z,45.50
2019-03-29T05:33:01.353Z,45.50
2019-03-29T05:34:04.599Z,45.30
2019-03-29T05:35:08.212Z,45.30
2019-03-29T05:36:11.505Z,45.40
2019-03-29T05:37:14.729Z,45.40
2019-03-29T05:38:17.985Z,45.40
2019-03-29T05:39:21.204Z,45.40
2019-03-29T05:40:34.737Z,45.40
2019-03-29T05:41:29.549Z,46.10
2019-03-29T05:42:32.837Z,45.60
2019-03-29T05:43:36.128Z,45.60
2019-03-29T05:44:40.831Z,45.60
2019-03-29T05:45:44.194Z,45.60
2019-03-29T05:46:47.529Z,45.60
2019-03-29T05:47:50.717Z,45.60
2019-03-29T05:48:53.971Z,45.60
2019-03-29T05:49:57.226Z,45.60
2019-03-29T05:51:00.428Z,45.60
2019-03-29T05:52:03.653Z,45.60
2019-03-29T05:53:06.829Z,45.60
2019-03-29T05:54:10.104Z,46.20
2019-03-29T05:55:13.297Z,45.50
2019-03-29T05:56:16.532Z,45.50
2019-03-29T05:57:19.792Z,45.60
2019-03-29T05:58:23.009Z,45.80
2019-03-29T05:59:26.281Z,45.60
2019-03-29T06:00:29.560Z,45.40
2019-03-29T06:01:32.744Z,45.40
2019-03-29T06:02:36.009Z,45.40
2019-03-29T06:03:39.220Z,45.50
2019-03-29T06:04:42.459Z,45.30
2019-03-29T06:05:45.686Z,45.30
2019-03-29T06:06:48.885Z,45.30
2019-03-29T06:07:52.143Z,45.20
2019-03-29T06:08:55.341Z,45.20
2019-03-29T06:09:58.586Z,45.30
2019-03-29T06:11:02.201Z,45.20
2019-03-29T06:12:05.386Z,45.30
2019-03-29T06:13:08.578Z,45.90
2019-03-29T06:14:11.766Z,45.30
2019-03-29T06:15:15.128Z,45.20
2019-03-29T06:16:18.396Z,45.20
2019-03-29T06:17:21.602Z,45.40
2019-03-29T06:18:24.846Z,45.40
2019-03-29T06:19:28.090Z,45.40
2019-03-29T06:20:31.351Z,45.40
2019-03-29T06:21:34.557Z,45.40
2019-03-29T06:22:37.798Z,45.50
2019-03-29T06:23:41.004Z,45.50
2019-03-29T06:24:44.173Z,45.60
2019-03-29T06:25:47.386Z,45.60
2019-03-29T06:26:50.582Z,45.70
2019-03-29T06:27:53.816Z,45.80
2019-03-29T06:28:57.027Z,45.80
2019-03-29T06:30:00.356Z,45.80
2019-03-29T06:31:03.645Z,45.70
2019-03-29T06:32:06.871Z,45.60
2019-03-29T06:33:10.176Z,45.60
2019-03-29T06:34:13.465Z,45.50
2019-03-29T06:35:16.647Z,45.50
2019-03-29T06:36:21.542Z,45.40
2019-03-29T06:37:25.665Z,45.40
2019-03-29T06:38:30.570Z,45.40
2019-03-29T06:39:33.798Z,45.40
2019-03-29T06:40:37.347Z,45.50
2019-03-29T06:41:40.639Z,45.50
2019-03-29T06:42:43.824Z,45.50
2019-03-29T06:43:46.997Z,45.60
2019-03-29T06:44:50.203Z,45.50
2019-03-29T06:45:53.570Z,45.30
2019-03-29T06:46:56.806Z,45.30
2019-03-29T06:48:00.046Z,45.20
2019-03-29T06:49:03.333Z,45.10
2019-03-29T06:50:06.752Z,44.90
2019-03-29T06:51:09.937Z,44.90
2019-03-29T06:52:13.197Z,44.90
2019-03-29T06:53:19.352Z,44.80
2019-03-29T06:54:22.536Z,44.80
2019-03-29T06:55:25.845Z,44.70
2019-03-29T06:56:29.094Z,44.60
2019-03-29T06:57:32.717Z,44.70
2019-03-29T06:58:36.077Z,44.60
2019-03-29T06:59:39.304Z,44.70
2019-03-29T07:00:42.827Z,44.50
2019-03-29T07:01:46.550Z,44.40
2019-03-29T07:02:49.844Z,44.40
2019-03-29T07:03:53.082Z,44.30
2019-03-29T07:04:56.379Z,44.10
2019-03-29T07:05:59.588Z,43.90
2019-03-29T07:07:02.765Z,43.70
2019-03-29T07:08:06.123Z,43.40
2019-03-29T07:09:09.426Z,43.30
2019-03-29T07:10:12.738Z,43.20
2019-03-29T07:11:17.649Z,43.20
2019-03-29T07:12:21.000Z,43.20
2019-03-29T07:13:24.284Z,43.20
2019-03-29T07:14:27.613Z,43.00
2019-03-29T07:15:30.810Z,43.00
2019-03-29T07:16:34.025Z,43.00
2019-03-29T07:17:37.695Z,43.10
2019-03-29T07:18:40.938Z,43.10
2019-03-29T07:19:44.174Z,43.10
2019-03-29T07:20:47.458Z,43.10
2019-03-29T07:21:50.787Z,43.10
2019-03-29T07:22:54.018Z,42.90
2019-03-29T07:23:57.284Z,42.90
2019-03-29T07:25:00.473Z,42.90
2019-03-29T07:26:03.656Z,42.90
2019-03-29T07:27:06.921Z,42.90
2019-03-29T07:28:10.251Z,43.00
2019-03-29T07:29:13.540Z,42.90
2019-03-29T07:30:16.918Z,42.90
2019-03-29T07:31:20.117Z,42.90
2019-03-29T07:32:23.347Z,42.90
2019-03-29T07:33:26.529Z,43.00
2019-03-29T07:34:29.749Z,43.10
2019-03-29T07:35:33.024Z,43.00
2019-03-29T07:36:36.221Z,42.90
2019-03-29T07:37:39.426Z,43.00
2019-03-29T07:38:42.689Z,43.00
2019-03-29T07:39:45.942Z,42.90
2019-03-29T07:40:49.253Z,43.00
2019-03-29T07:41:52.456Z,43.10
2019-03-29T07:42:55.983Z,43.20
2019-03-29T07:43:59.576Z,43.30
2019-03-29T07:45:02.808Z,43.50
2019-03-29T07:46:06.001Z,43.40
2019-03-29T07:47:09.205Z,43.50
2019-03-29T07:48:12.409Z,43.80
2019-03-29T07:49:15.677Z,43.80
2019-03-29T07:50:19.311Z,43.60
2019-03-29T07:51:22.582Z,43.70
2019-03-29T07:52:25.836Z,43.70
2019-03-29T07:53:29.151Z,43.70
2019-03-29T07:54:32.389Z,43.60
2019-03-29T07:55:37.331Z,43.50
2019-03-29T07:56:40.820Z,43.50
2019-03-29T07:57:44.055Z,43.60
2019-03-29T07:58:47.308Z,43.60
2019-03-29T07:59:50.619Z,43.30
2019-03-29T08:00:54.006Z,43.10
2019-03-29T08:01:57.189Z,43.00
2019-03-29T08:03:00.498Z,43.10
2019-03-29T08:04:03.758Z,43.20
2019-03-29T08:05:07.020Z,43.30
2019-03-29T08:06:10.271Z,43.30
2019-03-29T08:07:26.327Z,43.30
2019-03-29T08:08:24.823Z,43.20
2019-03-29T08:09:27.438Z,43.20
2019-03-29T08:10:31.866Z,43.00
2019-03-29T08:11:45.633Z,42.80
2019-03-29T08:12:40.682Z,42.60
2019-03-29T08:13:44.014Z,42.60
2019-03-29T08:14:47.263Z,42.40
2019-03-29T08:15:50.471Z,42.20
2019-03-29T08:16:53.808Z,42.10
2019-03-29T08:17:57.055Z,42.20
2019-03-29T08:19:00.425Z,42.10
2019-03-29T08:20:36.521Z,42.10
2019-03-29T08:21:08.970Z,42.50
2019-03-29T08:22:12.205Z,41.90
2019-03-29T08:23:15.389Z,41.70
2019-03-29T08:24:18.582Z,41.60
2019-03-29T08:25:21.784Z,41.50
2019-03-29T08:26:24.965Z,41.30
2019-03-29T08:27:28.261Z,41.00
2019-03-29T08:28:31.488Z,40.60
2019-03-29T08:29:34.703Z,40.50
2019-03-29T08:30:37.943Z,40.60
2019-03-29T08:31:41.213Z,40.50
2019-03-29T08:32:44.547Z,40.10
2019-03-29T08:33:47.736Z,39.80
2019-03-29T08:34:51.034Z,39.90
2019-03-29T08:35:54.253Z,39.90
2019-03-29T08:36:57.473Z,39.60
2019-03-29T08:38:00.761Z,39.40
2019-03-29T08:39:05.608Z,39.50
2019-03-29T08:40:08.930Z,39.60
2019-03-29T08:41:12.212Z,39.70
2019-03-29T08:42:18.370Z,39.70
2019-03-29T08:43:20.485Z,39.50
2019-03-29T08:44:23.689Z,39.60
2019-03-29T08:45:26.914Z,39.50
2019-03-29T08:46:30.222Z,39.40
2019-03-29T08:47:33.544Z,39.40
2019-03-29T08:48:36.840Z,39.10
2019-03-29T08:49:40.049Z,38.70
2019-03-29T08:50:43.322Z,38.50
2019-03-29T08:51:46.657Z,38.40
2019-03-29T08:52:49.907Z,38.30
2019-03-29T08:53:53.186Z,38.20
2019-03-29T08:54:56.548Z,38.20
2019-03-29T08:55:59.756Z,38.10
2019-03-29T08:57:03.002Z,38.00
2019-03-29T08:58:06.216Z,37.70
2019-03-29T08:59:09.494Z,36.30
2019-03-29T09:00:16.017Z,35.50
2019-03-29T09:01:19.882Z,34.80
2019-03-29T09:02:25.071Z,34.60
2019-03-29T09:03:28.560Z,34.20
2019-03-29T09:04:31.889Z,33.70
2019-03-29T09:05:35.118Z,33.50
2019-03-29T09:06:52.100Z,33.50
2019-03-29T09:07:45.330Z,34.00
2019-03-29T09:08:49.421Z,34.20
2019-03-29T09:09:52.720Z,34.10
2019-03-29T09:10:56.287Z,34.40
2019-03-29T09:12:13.365Z,34.90
2019-03-29T09:13:04.834Z,34.80
2019-03-29T09:14:08.165Z,34.60
2019-03-29T09:15:11.422Z,34.70
2019-03-29T09:16:14.764Z,34.80
2019-03-29T09:17:18.008Z,34.60
2019-03-29T09:18:21.255Z,34.80
2019-03-29T09:19:24.471Z,35.00
2019-03-29T09:20:27.798Z,35.00
2019-03-29T09:21:31.016Z,35.20
2019-03-29T09:22:34.249Z,35.30
2019-03-29T09:23:37.562Z,35.20
2019-03-29T09:24:41.119Z,35.10
2019-03-29T09:25:44.571Z,35.10
2019-03-29T09:26:47.907Z,34.90
2019-03-29T09:27:51.141Z,34.80
2019-03-29T09:28:54.389Z,34.80
2019-03-29T09:29:57.915Z,34.80
2019-03-29T09:31:01.197Z,34.90
2019-03-29T09:32:04.453Z,35.10
2019-03-29T09:33:07.865Z,35.10
2019-03-29T09:34:11.097Z,35.00
2019-03-29T09:35:14.465Z,34.90
2019-03-29T09:36:17.761Z,34.70
2019-03-29T09:37:21.029Z,34.60
2019-03-29T09:38:24.362Z,34.70
2019-03-29T09:39:27.566Z,35.10
2019-03-29T09:40:30.766Z,34.90
2019-03-29T09:41:36.633Z,34.90
2019-03-29T09:42:39.809Z,34.90
2019-03-29T09:43:43.055Z,34.80
2019-03-29T09:44:46.281Z,34.80
2019-03-29T09:45:49.527Z,35.00
2019-03-29T09:46:52.803Z,34.80
2019-03-29T09:47:56.170Z,34.90
2019-03-29T09:48:59.331Z,34.70
2019-03-29T09:50:02.622Z,34.40
2019-03-29T09:51:05.911Z,34.40
2019-03-29T09:52:09.254Z,34.50
2019-03-29T09:53:12.495Z,34.60
2019-03-29T09:54:15.797Z,34.80
2019-03-29T09:55:19.296Z,35.10
2019-03-29T09:56:22.521Z,35.10
2019-03-29T09:57:36.899Z,34.80
2019-03-29T09:58:33.467Z,34.70
2019-03-29T09:59:36.746Z,34.40
2019-03-29T10:00:39.984Z,34.20
2019-03-29T10:01:43.280Z,34.00
2019-03-29T10:02:46.529Z,33.90
2019-03-29T10:03:49.724Z,33.70
2019-03-29T10:04:52.982Z,33.80
2019-03-29T10:05:56.180Z,34.00
2019-03-29T10:06:59.708Z,34.10
2019-03-29T10:08:02.997Z,33.90
2019-03-29T10:09:06.884Z,33.90
2019-03-29T10:10:10.426Z,33.80
2019-03-29T10:11:13.725Z,33.90
2019-03-29T10:12:16.931Z,34.10
2019-03-29T10:13:20.217Z,34.10
2019-03-29T10:14:23.415Z,34.10
2019-03-29T10:15:26.689Z,34.20
2019-03-29T10:16:29.945Z,34.20
2019-03-29T10:17:33.152Z,33.90
2019-03-29T10:18:36.374Z,33.90
2019-03-29T10:19:39.595Z,33.70
2019-03-29T10:20:42.848Z,33.60
2019-03-29T10:21:46.201Z,33.90
2019-03-29T10:22:49.528Z,33.80
2019-03-29T10:23:52.796Z,33.70
2019-03-29T10:24:55.953Z,33.50
2019-03-29T10:25:59.323Z,33.40
2019-03-29T10:27:02.765Z,33.50
2019-03-29T10:28:05.974Z,33.50
2019-03-29T10:29:09.209Z,33.50
2019-03-29T10:30:14.337Z,33.60
2019-03-29T10:31:31.101Z,33.90
2019-03-29T10:32:22.595Z,33.60
2019-03-29T10:33:25.867Z,33.50
2019-03-29T10:34:29.180Z,33.60
2019-03-29T10:35:32.551Z,33.40
2019-03-29T10:36:35.779Z,33.40
2019-03-29T10:37:39.049Z,33.10
2019-03-29T10:38:42.282Z,33.10
2019-03-29T10:39:45.736Z,33.00
2019-03-29T10:40:49.008Z,33.10
2019-03-29T10:41:52.237Z,32.70
2019-03-29T10:42:58.074Z,33.30
2019-03-29T10:44:00.525Z,32.90
2019-03-29T10:45:03.948Z,32.70
2019-03-29T10:46:07.176Z,32.70
2019-03-29T10:47:10.370Z,32.40
2019-03-29T10:48:13.577Z,32.30
2019-03-29T10:49:16.868Z,32.20
2019-03-29T10:50:20.103Z,32.30
2019-03-29T10:51:23.329Z,32.40
2019-03-29T10:52:26.569Z,32.10
2019-03-29T10:53:29.808Z,32.20
2019-03-29T10:54:33.049Z,32.30
2019-03-29T10:55:36.312Z,32.30
2019-03-29T10:56:39.574Z,32.30
2019-03-29T10:57:42.794Z,32.30
2019-03-29T10:58:45.989Z,32.30
2019-03-29T10:59:49.280Z,32.00
2019-03-29T11:00:52.509Z,31.50
2019-03-29T11:01:55.702Z,31.50
2019-03-29T11:02:59.222Z,31.30
2019-03-29T11:04:02.560Z,31.20
2019-03-29T11:05:06.089Z,30.90
2019-03-29T11:06:09.333Z,30.80
2019-03-29T11:07:12.767Z,31.10
2019-03-29T11:08:15.972Z,31.30
2019-03-29T11:09:19.192Z,31.20
2019-03-29T11:10:30.282Z,31.10
2019-03-29T11:11:33.504Z,31.10
2019-03-29T11:12:36.763Z,31.10
2019-03-29T11:13:43.145Z,31.20
2019-03-29T11:14:46.347Z,31.40
2019-03-29T11:15:49.562Z,31.10
2019-03-29T11:16:52.829Z,31.20
2019-03-29T11:17:56.024Z,31.40
2019-03-29T11:18:59.226Z,31.30
2019-03-29T11:20:03.927Z,31.10
2019-03-29T11:21:07.199Z,30.80
2019-03-29T11:22:10.444Z,30.80
2019-03-29T11:23:13.712Z,30.80
2019-03-29T11:24:16.906Z,30.90
2019-03-29T11:25:20.300Z,30.90
2019-03-29T11:26:23.631Z,30.80
2019-03-29T11:27:26.910Z,30.70
2019-03-29T11:28:30.197Z,30.20
2019-03-29T11:29:33.536Z,30.40
2019-03-29T11:30:42.477Z,30.50
2019-03-29T11:31:41.827Z,30.50
2019-03-29T11:32:45.209Z,30.10
2019-03-29T11:33:48.720Z,30.00
2019-03-29T11:34:52.013Z,30.00
2019-03-29T11:35:55.346Z,29.90
2019-03-29T11:36:58.576Z,29.70
2019-03-29T11:38:01.849Z,29.40
2019-03-29T11:39:06.894Z,29.10
2019-03-29T11:40:11.235Z,28.50
2019-03-29T11:41:14.445Z,27.50
2019-03-29T11:42:17.971Z,27.30
2019-03-29T11:43:27.036Z,27.00
2019-03-29T11:44:26.353Z,26.40
2019-03-29T11:45:30.000Z,25.80
2019-03-29T11:46:33.201Z,24.80
2019-03-29T11:47:36.414Z,24.60
2019-03-29T11:48:39.640Z,24.90
2019-03-29T11:49:42.843Z,25.00
2019-03-29T11:50:46.380Z,24.60
2019-03-29T11:51:49.662Z,24.20
2019-03-29T11:52:52.974Z,23.60
2019-03-29T11:53:56.202Z,23.10
2019-03-29T11:54:59.466Z,23.00
2019-03-29T11:56:08.750Z,22.60
2019-03-29T11:57:11.991Z,22.30
2019-03-29T11:58:15.220Z,22.10
2019-03-29T11:59:18.461Z,22.00
2019-03-29T12:00:33.411Z,22.00
2019-03-29T12:01:36.631Z,22.10
2019-03-29T12:02:39.837Z,22.00
2019-03-29T12:03:43.071Z,22.10
2019-03-29T12:04:46.336Z,21.90
2019-03-29T12:05:49.868Z,21.40
2019-03-29T12:06:53.104Z,21.70
2019-03-29T12:07:56.323Z,22.20
2019-03-29T12:08:59.663Z,22.20
2019-03-29T12:10:03.716Z,21.70
2019-03-29T12:11:07.380Z,21.60
2019-03-29T12:12:10.609Z,21.00
2019-03-29T12:13:13.813Z,21.00
2019-03-29T12:14:17.055Z,21.10
2019-03-29T12:15:20.486Z,20.90
2019-03-29T12:16:23.748Z,20.60
2019-03-29T12:17:27.014Z,20.50
2019-03-29T12:18:30.204Z,20.30
2019-03-29T12:19:33.462Z,20.00
2019-03-29T12:20:36.813Z,20.00
2019-03-29T12:21:40.040Z,19.60
2019-03-29T12:22:43.245Z,19.50
2019-03-29T12:23:46.488Z,19.50
2019-03-29T12:24:49.712Z,19.10
2019-03-29T12:25:52.953Z,19.10
2019-03-29T12:26:56.147Z,19.00
2019-03-29T12:27:59.349Z,19.00
2019-03-29T12:29:02.610Z,19.20
2019-03-29T12:30:07.518Z,19.20
2019-03-29T12:31:11.150Z,19.30
2019-03-29T12:32:14.382Z,19.30
2019-03-29T12:33:17.569Z,19.20
2019-03-29T12:34:20.894Z,19.20
2019-03-29T12:35:24.144Z,19.40
2019-03-29T12:36:27.388Z,19.60
2019-03-29T12:37:30.630Z,19.50
2019-03-29T12:38:33.826Z,19.50
2019-03-29T12:39:37.146Z,19.90
2019-03-29T12:40:45.166Z,20.50
2019-03-29T12:41:48.253Z,20.90
2019-03-29T12:42:51.475Z,20.90
2019-03-29T12:43:56.110Z,20.70
2019-03-29T12:44:59.584Z,21.30
2019-03-29T12:46:03.469Z,20.90
2019-03-29T12:47:06.706Z,20.90
2019-03-29T12:48:09.918Z,21.00
2019-03-29T12:49:13.497Z,21.10
2019-03-29T12:50:16.730Z,21.40
2019-03-29T12:51:19.925Z,21.60
2019-03-29T12:52:23.265Z,21.80
2019-03-29T12:53:26.466Z,22.00
2019-03-29T12:54:29.694Z,22.00
2019-03-29T12:55:33.345Z,21.90
2019-03-29T12:56:36.624Z,21.90
2019-03-29T12:57:39.885Z,22.00
2019-03-29T12:58:43.134Z,22.30
2019-03-29T12:59:46.781Z,22.00
2019-03-29T13:00:50.149Z,21.80
2019-03-29T13:01:53.314Z,21.60
2019-03-29T13:02:56.634Z,21.70
2019-03-29T13:03:59.937Z,21.70
2019-03-29T13:05:03.290Z,21.60
2019-03-29T13:06:06.621Z,21.70
2019-03-29T13:07:09.904Z,22.10
2019-03-29T13:08:13.251Z,22.20
2019-03-29T13:09:16.655Z,22.20
2019-03-29T13:10:19.945Z,22.00
2019-03-29T13:11:23.161Z,22.00
2019-03-29T13:12:26.443Z,21.90
2019-03-29T13:13:29.684Z,21.90
2019-03-29T13:14:32.918Z,21.90
2019-03-29T13:15:36.164Z,21.90
2019-03-29T13:16:39.355Z,22.00
2019-03-29T13:17:42.561Z,21.90
2019-03-29T13:18:45.997Z,21.90
2019-03-29T13:19:49.193Z,21.90
2019-03-29T13:20:52.433Z,21.80
2019-03-29T13:21:55.668Z,21.80
2019-03-29T13:22:58.946Z,21.80
2019-03-29T13:24:02.197Z,22.00
2019-03-29T13:25:07.541Z,22.10
2019-03-29T13:26:11.036Z,22.00
2019-03-29T13:27:14.353Z,22.00
2019-03-29T13:28:17.576Z,22.10
2019-03-29T13:29:20.787Z,22.50
2019-03-29T13:30:24.017Z,22.60
2019-03-29T13:31:27.262Z,22.60
2019-03-29T13:32:33.274Z,22.60
2019-03-29T13:33:35.517Z,22.70
2019-03-29T13:34:38.770Z,22.80
2019-03-29T13:35:44.515Z,22.90
2019-03-29T13:36:47.133Z,23.00